sensor_id;sensor_type;location;lat;lon;timestamp;temperature;humidity
11650;DHT22;5881;48.522;7.682;2024-03-06T00:01:47;6.60;1.00
11650;DHT22;5881;48.522;7.682;2024-03-06T00:04:13;6.50;99.90
11650;DHT22;5881;48.522;7.682;2024-03-06T00:06:38;6.50;1.00
11650;DHT22;5881;48.522;7.682;2024-03-06T00:09:04;6.60;1.00
11650;DHT22;5881;48.522;7.682;2024-03-06T00:11:30;6.60;99.90
11650;DHT22;5881;48.522;7.682;2024-03-06T00:13:55;6.70;1.00
11650;DHT22;5881;48.522;7.682;2024-03-06T00:16:21;6.60;99.90
11650;DHT22;5881;48.522;7.682;2024-03-06T00:18:47;6.60;1.00
11650;DHT22;5881;48.522;7.682;2024-03-06T00:21:12;6.60;1.00
11650;DHT22;5881;48.522;7.682;2024-03-06T00:23:38;6.50;1.00
11650;DHT22;5881;48.522;7.682;2024-03-06T00:26:04;6.60;99.90
11650;DHT22;5881;48.522;7.682;2024-03-06T00:28:30;6.60;1.00
11650;DHT22;5881;48.522;7.682;2024-03-06T00:30:56;6.60;99.90
11650;DHT22;5881;48.522;7.682;2024-03-06T00:33:23;6.80;99.90
11650;DHT22;5881;48.522;7.682;2024-03-06T00:35:48;6.60;99.90
11650;DHT22;5881;48.522;7.682;2024-03-06T00:38:14;6.60;90.80
11650;DHT22;5881;48.522;7.682;2024-03-06T00:40:39;6.70;1.00
11650;DHT22;5881;48.522;7.682;2024-03-06T00:43:05;6.60;99.90
11650;DHT22;5881;48.522;7.682;2024-03-06T00:45:31;6.60;99.90
11650;DHT22;5881;48.522;7.682;2024-03-06T00:47:57;6.70;1.00
11650;DHT22;5881;48.522;7.682;2024-03-06T00:50:23;6.60;1.00
11650;DHT22;5881;48.522;7.682;2024-03-06T00:52:49;6.60;99.90
11650;DHT22;5881;48.522;7.682;2024-03-06T00:55:15;6.60;99.90
11650;DHT22;5881;48.522;7.682;2024-03-06T00:57:41;6.50;99.90
11650;DHT22;5881;48.522;7.682;2024-03-06T01:00:07;6.50;1.00
11650;DHT22;5881;48.522;7.682;2024-03-06T01:02:39;6.50;12.80
11650;DHT22;5881;48.522;7.682;2024-03-06T01:05:06;6.50;27.60
11650;DHT22;5881;48.522;7.682;2024-03-06T01:07:33;6.40;99.90
11650;DHT22;5881;48.522;7.682;2024-03-06T01:09:58;6.50;99.90
11650;DHT22;5881;48.522;7.682;2024-03-06T01:12:24;6.50;99.90
11650;DHT22;5881;48.522;7.682;2024-03-06T01:14:50;6.50;99.90
11650;DHT22;5881;48.522;7.682;2024-03-06T01:17:16;6.40;1.00
11650;DHT22;5881;48.522;7.682;2024-03-06T01:19:41;6.40;1.00
11650;DHT22;5881;48.522;7.682;2024-03-06T01:22:11;6.40;1.00
11650;DHT22;5881;48.522;7.682;2024-03-06T01:24:37;6.40;1.00
11650;DHT22;5881;48.522;7.682;2024-03-06T01:27:03;6.40;1.00
11650;DHT22;5881;48.522;7.682;2024-03-06T01:29:29;6.30;1.00
11650;DHT22;5881;48.522;7.682;2024-03-06T01:31:54;6.30;1.00
11650;DHT22;5881;48.522;7.682;2024-03-06T01:34:20;6.10;1.00
11650;DHT22;5881;48.522;7.682;2024-03-06T01:36:46;6.10;1.00
11650;DHT22;5881;48.522;7.682;2024-03-06T01:39:11;6.10;1.00
11650;DHT22;5881;48.522;7.682;2024-03-06T01:41:37;6.00;1.00
11650;DHT22;5881;48.522;7.682;2024-03-06T01:44:03;6.00;29.00
11650;DHT22;5881;48.522;7.682;2024-03-06T01:46:31;6.10;99.90
11650;DHT22;5881;48.522;7.682;2024-03-06T01:48:56;6.10;99.90
11650;DHT22;5881;48.522;7.682;2024-03-06T01:51:22;6.10;99.90
11650;DHT22;5881;48.522;7.682;2024-03-06T01:53:50;6.00;99.90
11650;DHT22;5881;48.522;7.682;2024-03-06T01:56:16;6.00;99.90
11650;DHT22;5881;48.522;7.682;2024-03-06T01:58:45;6.00;99.90
11650;DHT22;5881;48.522;7.682;2024-03-06T02:01:12;5.90;99.90
11650;DHT22;5881;48.522;7.682;2024-03-06T02:03:38;5.90;99.90
11650;DHT22;5881;48.522;7.682;2024-03-06T02:06:05;5.80;99.90
11650;DHT22;5881;48.522;7.682;2024-03-06T02:08:31;5.70;99.90
11650;DHT22;5881;48.522;7.682;2024-03-06T02:10:58;5.60;99.90
11650;DHT22;5881;48.522;7.682;2024-03-06T02:13:27;5.60;99.90
11650;DHT22;5881;48.522;7.682;2024-03-06T02:15:53;5.50;99.90
11650;DHT22;5881;48.522;7.682;2024-03-06T02:18:18;5.40;99.90
11650;DHT22;5881;48.522;7.682;2024-03-06T02:20:44;5.30;99.90
11650;DHT22;5881;48.522;7.682;2024-03-06T02:23:11;5.50;99.90
11650;DHT22;5881;48.522;7.682;2024-03-06T02:25:36;5.40;99.90
11650;DHT22;5881;48.522;7.682;2024-03-06T02:28:02;5.30;99.90
11650;DHT22;5881;48.522;7.682;2024-03-06T02:30:28;5.20;99.90
11650;DHT22;5881;48.522;7.682;2024-03-06T02:32:56;5.30;99.90
11650;DHT22;5881;48.522;7.682;2024-03-06T02:35:21;5.20;99.90
11650;DHT22;5881;48.522;7.682;2024-03-06T02:37:47;5.20;99.90
11650;DHT22;5881;48.522;7.682;2024-03-06T02:40:13;5.10;99.90
11650;DHT22;5881;48.522;7.682;2024-03-06T02:42:38;5.00;99.90
11650;DHT22;5881;48.522;7.682;2024-03-06T02:45:05;5.00;99.90
11650;DHT22;5881;48.522;7.682;2024-03-06T02:47:32;4.90;99.90
11650;DHT22;5881;48.522;7.682;2024-03-06T02:49:57;4.90;99.90
11650;DHT22;5881;48.522;7.682;2024-03-06T02:52:23;4.90;99.90
11650;DHT22;5881;48.522;7.682;2024-03-06T02:54:48;4.80;99.90
11650;DHT22;5881;48.522;7.682;2024-03-06T02:57:14;4.70;99.90
11650;DHT22;5881;48.522;7.682;2024-03-06T02:59:40;4.70;99.90
11650;DHT22;5881;48.522;7.682;2024-03-06T03:02:06;4.60;99.90
11650;DHT22;5881;48.522;7.682;2024-03-06T03:04:31;4.60;99.90
11650;DHT22;5881;48.522;7.682;2024-03-06T03:06:57;4.60;99.90
11650;DHT22;5881;48.522;7.682;2024-03-06T03:09:23;4.60;99.90
11650;DHT22;5881;48.522;7.682;2024-03-06T03:11:49;4.60;99.90
11650;DHT22;5881;48.522;7.682;2024-03-06T03:14:14;4.60;99.90
11650;DHT22;5881;48.522;7.682;2024-03-06T03:16:40;4.80;99.90
11650;DHT22;5881;48.522;7.682;2024-03-06T03:19:07;4.70;99.90
11650;DHT22;5881;48.522;7.682;2024-03-06T03:21:33;4.70;99.90
11650;DHT22;5881;48.522;7.682;2024-03-06T03:23:59;4.70;99.90
11650;DHT22;5881;48.522;7.682;2024-03-06T03:26:25;4.80;99.90
11650;DHT22;5881;48.522;7.682;2024-03-06T03:28:50;4.70;99.90
11650;DHT22;5881;48.522;7.682;2024-03-06T03:31:16;4.60;99.90
11650;DHT22;5881;48.522;7.682;2024-03-06T03:33:42;4.60;99.90
11650;DHT22;5881;48.522;7.682;2024-03-06T03:36:08;4.60;99.90
11650;DHT22;5881;48.522;7.682;2024-03-06T03:38:35;4.50;99.90
11650;DHT22;5881;48.522;7.682;2024-03-06T03:41:10;4.50;99.90
11650;DHT22;5881;48.522;7.682;2024-03-06T03:43:36;4.50;99.90
11650;DHT22;5881;48.522;7.682;2024-03-06T03:46:01;4.60;99.90
11650;DHT22;5881;48.522;7.682;2024-03-06T03:48:29;4.50;99.90
11650;DHT22;5881;48.522;7.682;2024-03-06T03:50:55;4.50;99.90
11650;DHT22;5881;48.522;7.682;2024-03-06T03:53:21;4.50;99.90
11650;DHT22;5881;48.522;7.682;2024-03-06T03:55:46;4.50;99.90
11650;DHT22;5881;48.522;7.682;2024-03-06T03:58:12;4.60;99.90
11650;DHT22;5881;48.522;7.682;2024-03-06T04:00:37;4.60;99.90
11650;DHT22;5881;48.522;7.682;2024-03-06T04:03:03;4.70;99.90
11650;DHT22;5881;48.522;7.682;2024-03-06T04:05:29;4.80;99.90
11650;DHT22;5881;48.522;7.682;2024-03-06T04:07:54;4.80;99.90
11650;DHT22;5881;48.522;7.682;2024-03-06T04:10:21;4.80;99.90
11650;DHT22;5881;48.522;7.682;2024-03-06T04:12:46;4.80;99.90
11650;DHT22;5881;48.522;7.682;2024-03-06T04:15:12;4.80;99.90
11650;DHT22;5881;48.522;7.682;2024-03-06T04:17:37;4.80;99.90
11650;DHT22;5881;48.522;7.682;2024-03-06T04:20:03;4.80;99.90
11650;DHT22;5881;48.522;7.682;2024-03-06T04:22:31;4.90;99.90
11650;DHT22;5881;48.522;7.682;2024-03-06T04:24:56;4.80;99.90
11650;DHT22;5881;48.522;7.682;2024-03-06T04:27:24;4.80;99.90
11650;DHT22;5881;48.522;7.682;2024-03-06T04:29:50;4.80;99.90
11650;DHT22;5881;48.522;7.682;2024-03-06T04:32:16;4.80;99.90
11650;DHT22;5881;48.522;7.682;2024-03-06T04:34:41;4.80;99.90
11650;DHT22;5881;48.522;7.682;2024-03-06T04:37:07;4.80;99.90
11650;DHT22;5881;48.522;7.682;2024-03-06T04:39:33;4.80;99.90
11650;DHT22;5881;48.522;7.682;2024-03-06T04:41:58;4.70;99.90
11650;DHT22;5881;48.522;7.682;2024-03-06T04:44:24;4.80;99.90
11650;DHT22;5881;48.522;7.682;2024-03-06T04:46:50;4.90;99.90
11650;DHT22;5881;48.522;7.682;2024-03-06T04:49:16;4.90;99.90
11650;DHT22;5881;48.522;7.682;2024-03-06T04:51:41;4.90;99.90
11650;DHT22;5881;48.522;7.682;2024-03-06T04:54:07;5.10;99.90
11650;DHT22;5881;48.522;7.682;2024-03-06T04:56:34;4.90;99.90
11650;DHT22;5881;48.522;7.682;2024-03-06T04:58:59;4.80;99.90
11650;DHT22;5881;48.522;7.682;2024-03-06T05:01:28;5.00;99.90
11650;DHT22;5881;48.522;7.682;2024-03-06T05:03:54;5.00;99.90
11650;DHT22;5881;48.522;7.682;2024-03-06T05:06:21;5.00;99.90
11650;DHT22;5881;48.522;7.682;2024-03-06T05:08:47;5.00;99.90
11650;DHT22;5881;48.522;7.682;2024-03-06T05:11:13;5.10;99.90
11650;DHT22;5881;48.522;7.682;2024-03-06T05:13:38;5.00;99.90
11650;DHT22;5881;48.522;7.682;2024-03-06T05:16:05;4.90;99.90
11650;DHT22;5881;48.522;7.682;2024-03-06T05:18:30;5.00;99.90
11650;DHT22;5881;48.522;7.682;2024-03-06T05:20:56;5.00;99.90
11650;DHT22;5881;48.522;7.682;2024-03-06T05:23:22;5.00;99.90
11650;DHT22;5881;48.522;7.682;2024-03-06T05:25:48;5.00;99.90
11650;DHT22;5881;48.522;7.682;2024-03-06T05:28:14;5.00;99.90
11650;DHT22;5881;48.522;7.682;2024-03-06T05:30:39;5.00;99.90
11650;DHT22;5881;48.522;7.682;2024-03-06T05:33:05;5.00;99.90
11650;DHT22;5881;48.522;7.682;2024-03-06T05:35:31;5.00;99.90
11650;DHT22;5881;48.522;7.682;2024-03-06T05:37:56;4.90;99.90
11650;DHT22;5881;48.522;7.682;2024-03-06T05:40:22;5.30;99.90
11650;DHT22;5881;48.522;7.682;2024-03-06T05:42:47;5.10;99.90
11650;DHT22;5881;48.522;7.682;2024-03-06T05:45:13;5.00;99.90
11650;DHT22;5881;48.522;7.682;2024-03-06T05:47:39;5.10;99.90
11650;DHT22;5881;48.522;7.682;2024-03-06T05:50:07;5.10;99.90
11650;DHT22;5881;48.522;7.682;2024-03-06T05:52:33;5.10;99.90
11650;DHT22;5881;48.522;7.682;2024-03-06T05:55:02;5.20;99.90
11650;DHT22;5881;48.522;7.682;2024-03-06T05:57:31;5.20;99.90
11650;DHT22;5881;48.522;7.682;2024-03-06T05:59:57;5.10;99.90
11650;DHT22;5881;48.522;7.682;2024-03-06T06:02:23;5.10;99.90
11650;DHT22;5881;48.522;7.682;2024-03-06T06:04:49;5.10;99.90
11650;DHT22;5881;48.522;7.682;2024-03-06T06:07:14;5.20;99.90
11650;DHT22;5881;48.522;7.682;2024-03-06T06:09:41;5.20;99.90
11650;DHT22;5881;48.522;7.682;2024-03-06T06:12:06;5.10;99.90
11650;DHT22;5881;48.522;7.682;2024-03-06T06:14:32;5.10;99.90
11650;DHT22;5881;48.522;7.682;2024-03-06T06:16:57;5.20;99.90
11650;DHT22;5881;48.522;7.682;2024-03-06T06:19:23;5.10;99.90
11650;DHT22;5881;48.522;7.682;2024-03-06T06:21:49;5.20;99.90
11650;DHT22;5881;48.522;7.682;2024-03-06T06:24:14;5.20;99.90
11650;DHT22;5881;48.522;7.682;2024-03-06T06:26:40;5.20;99.90
11650;DHT22;5881;48.522;7.682;2024-03-06T06:29:05;5.30;99.90
11650;DHT22;5881;48.522;7.682;2024-03-06T06:31:31;5.40;99.90
11650;DHT22;5881;48.522;7.682;2024-03-06T06:33:57;5.40;99.90
11650;DHT22;5881;48.522;7.682;2024-03-06T06:36:23;5.50;99.90
11650;DHT22;5881;48.522;7.682;2024-03-06T06:38:48;5.50;99.90
11650;DHT22;5881;48.522;7.682;2024-03-06T06:41:14;5.50;99.90
11650;DHT22;5881;48.522;7.682;2024-03-06T06:43:41;5.60;99.90
11650;DHT22;5881;48.522;7.682;2024-03-06T06:46:07;5.50;99.90
11650;DHT22;5881;48.522;7.682;2024-03-06T06:48:33;5.50;99.90
11650;DHT22;5881;48.522;7.682;2024-03-06T06:51:00;5.60;99.90
11650;DHT22;5881;48.522;7.682;2024-03-06T06:53:28;5.70;99.90
11650;DHT22;5881;48.522;7.682;2024-03-06T06:55:53;5.70;99.90
11650;DHT22;5881;48.522;7.682;2024-03-06T06:58:19;5.70;99.90
11650;DHT22;5881;48.522;7.682;2024-03-06T07:00:45;5.80;99.90
11650;DHT22;5881;48.522;7.682;2024-03-06T07:03:11;5.80;99.90
11650;DHT22;5881;48.522;7.682;2024-03-06T07:05:36;5.90;99.90
11650;DHT22;5881;48.522;7.682;2024-03-06T07:08:02;6.00;99.90
11650;DHT22;5881;48.522;7.682;2024-03-06T07:10:27;6.00;99.90
11650;DHT22;5881;48.522;7.682;2024-03-06T07:12:53;6.00;99.90
11650;DHT22;5881;48.522;7.682;2024-03-06T07:15:19;6.10;99.90
11650;DHT22;5881;48.522;7.682;2024-03-06T07:17:44;6.10;99.90
11650;DHT22;5881;48.522;7.682;2024-03-06T07:20:10;6.20;99.90
11650;DHT22;5881;48.522;7.682;2024-03-06T07:22:37;6.20;99.90
11650;DHT22;5881;48.522;7.682;2024-03-06T07:25:03;6.20;99.90
11650;DHT22;5881;48.522;7.682;2024-03-06T07:27:29;6.30;99.90
11650;DHT22;5881;48.522;7.682;2024-03-06T07:29:54;6.30;99.90
11650;DHT22;5881;48.522;7.682;2024-03-06T07:32:21;6.40;99.90
11650;DHT22;5881;48.522;7.682;2024-03-06T07:34:46;6.50;99.90
11650;DHT22;5881;48.522;7.682;2024-03-06T07:37:12;6.50;99.90
11650;DHT22;5881;48.522;7.682;2024-03-06T07:39:40;6.50;82.90
11650;DHT22;5881;48.522;7.682;2024-03-06T07:42:05;6.60;72.50
11650;DHT22;5881;48.522;7.682;2024-03-06T07:44:31;6.50;21.40
11650;DHT22;5881;48.522;7.682;2024-03-06T07:46:56;6.60;1.00
11650;DHT22;5881;48.522;7.682;2024-03-06T07:49:25;6.70;1.00
11650;DHT22;5881;48.522;7.682;2024-03-06T07:51:51;6.70;1.00
11650;DHT22;5881;48.522;7.682;2024-03-06T07:54:17;6.90;1.00
11650;DHT22;5881;48.522;7.682;2024-03-06T07:56:42;7.00;1.00
11650;DHT22;5881;48.522;7.682;2024-03-06T07:59:08;7.10;1.00
11650;DHT22;5881;48.522;7.682;2024-03-06T08:01:34;7.10;99.90
11650;DHT22;5881;48.522;7.682;2024-03-06T08:04:00;7.20;99.90
11650;DHT22;5881;48.522;7.682;2024-03-06T08:06:25;7.30;1.00
11650;DHT22;5881;48.522;7.682;2024-03-06T08:08:52;7.30;1.00
11650;DHT22;5881;48.522;7.682;2024-03-06T08:11:17;7.40;1.00
11650;DHT22;5881;48.522;7.682;2024-03-06T08:13:43;7.40;1.00
11650;DHT22;5881;48.522;7.682;2024-03-06T08:16:08;7.40;1.00
11650;DHT22;5881;48.522;7.682;2024-03-06T08:18:56;7.30;99.90
11650;DHT22;5881;48.522;7.682;2024-03-06T08:21:24;7.30;1.00
11650;DHT22;5881;48.522;7.682;2024-03-06T08:23:50;7.40;99.90
11650;DHT22;5881;48.522;7.682;2024-03-06T08:26:16;7.50;99.90
11650;DHT22;5881;48.522;7.682;2024-03-06T08:28:42;7.50;99.90
11650;DHT22;5881;48.522;7.682;2024-03-06T08:31:07;7.40;99.90
11650;DHT22;5881;48.522;7.682;2024-03-06T08:33:33;7.60;99.90
11650;DHT22;5881;48.522;7.682;2024-03-06T08:35:59;7.70;25.50
11650;DHT22;5881;48.522;7.682;2024-03-06T08:38:25;7.70;1.00
11650;DHT22;5881;48.522;7.682;2024-03-06T08:40:50;7.60;1.00
11650;DHT22;5881;48.522;7.682;2024-03-06T08:43:16;7.80;1.00
11650;DHT22;5881;48.522;7.682;2024-03-06T08:45:42;7.90;1.00
11650;DHT22;5881;48.522;7.682;2024-03-06T08:48:08;8.00;1.00
11650;DHT22;5881;48.522;7.682;2024-03-06T08:50:34;8.20;1.00
11650;DHT22;5881;48.522;7.682;2024-03-06T08:53:00;8.40;1.00
11650;DHT22;5881;48.522;7.682;2024-03-06T08:55:27;8.40;1.00
11650;DHT22;5881;48.522;7.682;2024-03-06T08:57:53;8.50;1.00
11650;DHT22;5881;48.522;7.682;2024-03-06T09:00:19;8.50;1.00
11650;DHT22;5881;48.522;7.682;2024-03-06T09:02:45;8.30;99.90
11650;DHT22;5881;48.522;7.682;2024-03-06T09:05:12;8.20;99.90
11650;DHT22;5881;48.522;7.682;2024-03-06T09:07:38;8.20;99.90
11650;DHT22;5881;48.522;7.682;2024-03-06T09:10:12;8.60;99.90
11650;DHT22;5881;48.522;7.682;2024-03-06T09:12:38;8.80;99.90
11650;DHT22;5881;48.522;7.682;2024-03-06T09:15:04;9.10;79.10
11650;DHT22;5881;48.522;7.682;2024-03-06T09:17:32;9.30;99.90
11650;DHT22;5881;48.522;7.682;2024-03-06T09:19:58;9.50;99.90
11650;DHT22;5881;48.522;7.682;2024-03-06T09:22:23;10.00;99.90
11650;DHT22;5881;48.522;7.682;2024-03-06T09:24:49;10.30;99.90
11650;DHT22;5881;48.522;7.682;2024-03-06T09:27:15;10.30;99.90
11650;DHT22;5881;48.522;7.682;2024-03-06T09:29:42;10.20;99.90
11650;DHT22;5881;48.522;7.682;2024-03-06T09:32:08;10.20;99.90
11650;DHT22;5881;48.522;7.682;2024-03-06T09:34:34;10.20;99.90
11650;DHT22;5881;48.522;7.682;2024-03-06T09:36:59;10.10;99.90
11650;DHT22;5881;48.522;7.682;2024-03-06T09:39:25;10.20;99.90
11650;DHT22;5881;48.522;7.682;2024-03-06T09:41:51;10.30;99.90
11650;DHT22;5881;48.522;7.682;2024-03-06T09:44:17;10.20;99.90
11650;DHT22;5881;48.522;7.682;2024-03-06T09:46:44;10.20;99.90
11650;DHT22;5881;48.522;7.682;2024-03-06T09:49:15;10.60;99.90
11650;DHT22;5881;48.522;7.682;2024-03-06T09:51:50;10.80;99.90
11650;DHT22;5881;48.522;7.682;2024-03-06T09:54:19;10.30;99.90
11650;DHT22;5881;48.522;7.682;2024-03-06T09:56:48;10.40;99.90
11650;DHT22;5881;48.522;7.682;2024-03-06T09:59:14;10.30;99.90
11650;DHT22;5881;48.522;7.682;2024-03-06T10:02:03;10.60;99.90
11650;DHT22;5881;48.522;7.682;2024-03-06T10:04:33;10.50;99.90
11650;DHT22;5881;48.522;7.682;2024-03-06T10:07:00;10.40;99.90
11650;DHT22;5881;48.522;7.682;2024-03-06T10:09:28;10.70;99.90
11650;DHT22;5881;48.522;7.682;2024-03-06T10:11:55;10.30;99.90
11650;DHT22;5881;48.522;7.682;2024-03-06T10:14:23;10.50;99.90
11650;DHT22;5881;48.522;7.682;2024-03-06T10:16:58;10.50;99.90
11650;DHT22;5881;48.522;7.682;2024-03-06T10:19:28;10.40;99.90
11650;DHT22;5881;48.522;7.682;2024-03-06T10:21:54;10.60;99.90
11650;DHT22;5881;48.522;7.682;2024-03-06T10:24:22;10.40;99.90
11650;DHT22;5881;48.522;7.682;2024-03-06T10:26:49;10.20;99.90
11650;DHT22;5881;48.522;7.682;2024-03-06T10:29:17;10.20;99.90
11650;DHT22;5881;48.522;7.682;2024-03-06T10:34:18;10.40;99.90
11650;DHT22;5881;48.522;7.682;2024-03-06T10:36:45;10.20;99.90
11650;DHT22;5881;48.522;7.682;2024-03-06T10:39:12;10.10;99.90
11650;DHT22;5881;48.522;7.682;2024-03-06T10:41:40;10.30;99.90
11650;DHT22;5881;48.522;7.682;2024-03-06T10:44:11;10.30;99.90
11650;DHT22;5881;48.522;7.682;2024-03-06T10:46:41;10.50;99.90
11650;DHT22;5881;48.522;7.682;2024-03-06T10:49:09;10.30;99.90
11650;DHT22;5881;48.522;7.682;2024-03-06T10:51:40;10.40;99.90
11650;DHT22;5881;48.522;7.682;2024-03-06T10:54:08;10.10;99.90
11650;DHT22;5881;48.522;7.682;2024-03-06T10:56:34;9.90;99.90
11650;DHT22;5881;48.522;7.682;2024-03-06T10:59:00;10.30;99.90
11650;DHT22;5881;48.522;7.682;2024-03-06T11:01:29;10.40;99.90
11650;DHT22;5881;48.522;7.682;2024-03-06T11:03:59;10.50;99.90
11650;DHT22;5881;48.522;7.682;2024-03-06T11:06:26;10.80;99.90
11650;DHT22;5881;48.522;7.682;2024-03-06T11:08:52;10.80;99.90
11650;DHT22;5881;48.522;7.682;2024-03-06T11:11:22;10.50;99.90
11650;DHT22;5881;48.522;7.682;2024-03-06T11:13:48;10.70;99.90
11650;DHT22;5881;48.522;7.682;2024-03-06T11:16:14;10.60;99.90
11650;DHT22;5881;48.522;7.682;2024-03-06T11:23:34;11.00;99.90
11650;DHT22;5881;48.522;7.682;2024-03-06T11:28:38;10.90;99.90
11650;DHT22;5881;48.522;7.682;2024-03-06T11:31:07;10.90;99.90
11650;DHT22;5881;48.522;7.682;2024-03-06T11:33:41;10.40;99.90
11650;DHT22;5881;48.522;7.682;2024-03-06T11:36:23;11.00;99.90
11650;DHT22;5881;48.522;7.682;2024-03-06T11:38:57;11.30;99.90
11650;DHT22;5881;48.522;7.682;2024-03-06T11:41:48;11.70;99.90
11650;DHT22;5881;48.522;7.682;2024-03-06T11:44:18;12.30;99.90
11650;DHT22;5881;48.522;7.682;2024-03-06T11:47:00;13.60;99.90
11650;DHT22;5881;48.522;7.682;2024-03-06T11:49:31;14.60;99.90
11650;DHT22;5881;48.522;7.682;2024-03-06T11:52:06;14.00;99.90
11650;DHT22;5881;48.522;7.682;2024-03-06T11:54:34;13.30;99.90
11650;DHT22;5881;48.522;7.682;2024-03-06T11:57:01;13.00;99.90
11650;DHT22;5881;48.522;7.682;2024-03-06T11:59:28;12.40;99.90
11650;DHT22;5881;48.522;7.682;2024-03-06T12:01:57;12.10;99.90
11650;DHT22;5881;48.522;7.682;2024-03-06T12:04:27;12.00;99.90
11650;DHT22;5881;48.522;7.682;2024-03-06T12:06:56;11.70;99.90
11650;DHT22;5881;48.522;7.682;2024-03-06T12:09:23;11.90;99.90
11650;DHT22;5881;48.522;7.682;2024-03-06T12:11:48;12.10;99.90
11650;DHT22;5881;48.522;7.682;2024-03-06T12:14:18;12.40;99.90
11650;DHT22;5881;48.522;7.682;2024-03-06T12:16:57;12.30;99.90
11650;DHT22;5881;48.522;7.682;2024-03-06T12:19:25;12.40;99.90
11650;DHT22;5881;48.522;7.682;2024-03-06T12:21:52;12.40;99.90
11650;DHT22;5881;48.522;7.682;2024-03-06T12:24:19;12.60;99.90
11650;DHT22;5881;48.522;7.682;2024-03-06T12:26:45;12.30;99.90
11650;DHT22;5881;48.522;7.682;2024-03-06T12:29:17;12.60;99.90
11650;DHT22;5881;48.522;7.682;2024-03-06T12:31:44;12.60;99.90
11650;DHT22;5881;48.522;7.682;2024-03-06T12:34:13;12.90;99.90
11650;DHT22;5881;48.522;7.682;2024-03-06T12:36:41;12.60;99.90
11650;DHT22;5881;48.522;7.682;2024-03-06T12:39:06;12.40;99.90
11650;DHT22;5881;48.522;7.682;2024-03-06T12:41:39;12.60;99.90
11650;DHT22;5881;48.522;7.682;2024-03-06T12:44:05;12.60;99.90
11650;DHT22;5881;48.522;7.682;2024-03-06T12:46:32;12.50;99.90
11650;DHT22;5881;48.522;7.682;2024-03-06T12:48:58;12.30;99.90
11650;DHT22;5881;48.522;7.682;2024-03-06T12:51:24;12.40;99.90
11650;DHT22;5881;48.522;7.682;2024-03-06T12:53:49;12.20;99.90
11650;DHT22;5881;48.522;7.682;2024-03-06T12:56:17;12.00;99.90
11650;DHT22;5881;48.522;7.682;2024-03-06T12:58:42;11.60;99.90
11650;DHT22;5881;48.522;7.682;2024-03-06T13:01:08;11.50;99.90
11650;DHT22;5881;48.522;7.682;2024-03-06T13:03:34;11.50;99.90
11650;DHT22;5881;48.522;7.682;2024-03-06T13:06:00;11.50;99.90
11650;DHT22;5881;48.522;7.682;2024-03-06T13:08:25;11.50;99.90
11650;DHT22;5881;48.522;7.682;2024-03-06T13:10:51;11.30;99.90
11650;DHT22;5881;48.522;7.682;2024-03-06T13:13:17;11.40;99.90
11650;DHT22;5881;48.522;7.682;2024-03-06T13:15:42;11.40;99.90
11650;DHT22;5881;48.522;7.682;2024-03-06T13:18:09;11.30;99.90
11650;DHT22;5881;48.522;7.682;2024-03-06T13:20:34;11.30;99.90
11650;DHT22;5881;48.522;7.682;2024-03-06T13:23:01;11.10;99.90
11650;DHT22;5881;48.522;7.682;2024-03-06T13:25:27;10.90;99.90
11650;DHT22;5881;48.522;7.682;2024-03-06T13:27:54;11.10;99.90
11650;DHT22;5881;48.522;7.682;2024-03-06T13:30:20;11.10;99.90
11650;DHT22;5881;48.522;7.682;2024-03-06T13:32:46;11.20;99.90
11650;DHT22;5881;48.522;7.682;2024-03-06T13:35:12;11.20;99.90
11650;DHT22;5881;48.522;7.682;2024-03-06T13:37:42;11.00;99.90
11650;DHT22;5881;48.522;7.682;2024-03-06T13:40:09;10.90;99.90
11650;DHT22;5881;48.522;7.682;2024-03-06T13:42:36;10.90;99.90
11650;DHT22;5881;48.522;7.682;2024-03-06T13:45:03;10.70;99.90
11650;DHT22;5881;48.522;7.682;2024-03-06T13:47:30;11.10;99.90
11650;DHT22;5881;48.522;7.682;2024-03-06T13:49:56;11.20;99.90
11650;DHT22;5881;48.522;7.682;2024-03-06T13:52:21;11.00;99.90
11650;DHT22;5881;48.522;7.682;2024-03-06T13:54:49;10.90;99.90
11650;DHT22;5881;48.522;7.682;2024-03-06T13:57:15;11.10;99.90
11650;DHT22;5881;48.522;7.682;2024-03-06T13:59:41;11.00;99.90
11650;DHT22;5881;48.522;7.682;2024-03-06T14:02:07;10.80;99.90
11650;DHT22;5881;48.522;7.682;2024-03-06T14:04:32;10.90;99.90
11650;DHT22;5881;48.522;7.682;2024-03-06T14:06:58;10.90;99.90
11650;DHT22;5881;48.522;7.682;2024-03-06T14:09:25;11.00;99.90
11650;DHT22;5881;48.522;7.682;2024-03-06T14:11:54;10.80;99.90
11650;DHT22;5881;48.522;7.682;2024-03-06T14:14:20;10.40;99.90
11650;DHT22;5881;48.522;7.682;2024-03-06T14:16:46;10.40;99.90
11650;DHT22;5881;48.522;7.682;2024-03-06T14:19:12;10.50;99.90
11650;DHT22;5881;48.522;7.682;2024-03-06T14:21:38;10.60;99.90
11650;DHT22;5881;48.522;7.682;2024-03-06T14:24:04;10.40;99.90
11650;DHT22;5881;48.522;7.682;2024-03-06T14:26:32;10.20;99.90
11650;DHT22;5881;48.522;7.682;2024-03-06T14:28:58;10.10;99.90
11650;DHT22;5881;48.522;7.682;2024-03-06T14:31:24;10.20;99.90
11650;DHT22;5881;48.522;7.682;2024-03-06T14:33:50;10.10;99.90
11650;DHT22;5881;48.522;7.682;2024-03-06T14:36:33;10.20;99.90
11650;DHT22;5881;48.522;7.682;2024-03-06T14:39:03;10.30;99.90
11650;DHT22;5881;48.522;7.682;2024-03-06T14:41:28;10.10;99.90
11650;DHT22;5881;48.522;7.682;2024-03-06T14:43:54;10.10;99.90
11650;DHT22;5881;48.522;7.682;2024-03-06T14:46:20;10.00;99.90
11650;DHT22;5881;48.522;7.682;2024-03-06T14:48:45;9.90;99.90
11650;DHT22;5881;48.522;7.682;2024-03-06T14:51:11;9.90;99.90
11650;DHT22;5881;48.522;7.682;2024-03-06T14:53:38;9.90;99.90
11650;DHT22;5881;48.522;7.682;2024-03-06T14:56:04;9.80;99.90
11650;DHT22;5881;48.522;7.682;2024-03-06T14:58:30;9.90;99.90
11650;DHT22;5881;48.522;7.682;2024-03-06T15:00:56;9.80;99.90
11650;DHT22;5881;48.522;7.682;2024-03-06T15:03:21;9.80;99.90
11650;DHT22;5881;48.522;7.682;2024-03-06T15:05:47;9.70;99.90
11650;DHT22;5881;48.522;7.682;2024-03-06T15:08:12;9.70;99.90
11650;DHT22;5881;48.522;7.682;2024-03-06T15:10:39;9.70;99.90
11650;DHT22;5881;48.522;7.682;2024-03-06T15:13:04;9.60;99.90
11650;DHT22;5881;48.522;7.682;2024-03-06T15:15:31;9.60;99.90
11650;DHT22;5881;48.522;7.682;2024-03-06T15:17:57;9.50;99.90
11650;DHT22;5881;48.522;7.682;2024-03-06T15:20:23;9.50;99.90
11650;DHT22;5881;48.522;7.682;2024-03-06T15:22:48;9.40;99.90
11650;DHT22;5881;48.522;7.682;2024-03-06T15:25:14;9.40;99.90
11650;DHT22;5881;48.522;7.682;2024-03-06T15:27:40;9.40;99.90
11650;DHT22;5881;48.522;7.682;2024-03-06T15:30:07;9.40;99.90
11650;DHT22;5881;48.522;7.682;2024-03-06T15:32:34;9.40;99.90
11650;DHT22;5881;48.522;7.682;2024-03-06T15:35:00;9.20;99.90
11650;DHT22;5881;48.522;7.682;2024-03-06T15:37:56;9.10;99.90
11650;DHT22;5881;48.522;7.682;2024-03-06T15:40:31;9.00;99.90
11650;DHT22;5881;48.522;7.682;2024-03-06T15:42:57;9.00;99.90
11650;DHT22;5881;48.522;7.682;2024-03-06T15:45:22;9.00;99.90
11650;DHT22;5881;48.522;7.682;2024-03-06T15:47:49;9.00;99.90
11650;DHT22;5881;48.522;7.682;2024-03-06T15:50:14;8.90;99.90
11650;DHT22;5881;48.522;7.682;2024-03-06T15:52:40;8.90;99.90
11650;DHT22;5881;48.522;7.682;2024-03-06T15:55:06;8.80;99.90
11650;DHT22;5881;48.522;7.682;2024-03-06T15:57:32;8.80;99.90
11650;DHT22;5881;48.522;7.682;2024-03-06T15:59:58;8.70;99.90
11650;DHT22;5881;48.522;7.682;2024-03-06T16:02:24;8.70;99.90
11650;DHT22;5881;48.522;7.682;2024-03-06T16:04:49;8.60;99.90